• Join FlightAware (Why Join?)
  • Login
  • US Flag 
08:05PM EDT


 

Airport Tracker/Info


-or-


 

Live Flight TrackerFlight Track Log ✈ WBR2626 ✈ 29-Aug-2013 ✈ KSTL - KBRL

Flight Track Log - Related Links

Times and Time Zones

All times are in EDT time to prevent confusion due to time zone crossing. See the WBR2626 flight status page for this flight to view local times or setup timezone preferences in your user account.

Time Position Orientation Groundspeed Altitude Reporting Facility
EDT Latitude Longitude Course Direction KTS MPH feet Rate Location/Type
04:29PM 38.7500 -90.3833 360° North 95 109 1,200  Level Gateway (St. Louis) TRACON
04:30PM 38.7833 -90.3833 360° North 110 127 1,700 600 Climbing Gateway (St. Louis) TRACON
04:31PM 38.8000 -90.3833 360° North 115 132 2,400 720 Climbing Gateway (St. Louis) TRACON
04:32PM 38.8333 -90.3833 360° North 119 137 3,200 720 Climbing Gateway (St. Louis) TRACON
04:33PM 38.8667 -90.3833 360° North 119 137 3,900 660 Climbing Gateway (St. Louis) TRACON
04:34PM 38.9000 -90.4000 339° North 121 139 4,600 660 Climbing Gateway (St. Louis) TRACON
04:35PM 38.9333 -90.4000 360° North 119 137 5,300 600 Climbing Gateway (St. Louis) TRACON
04:36PM 38.9753 -90.4150 344° North 119 137 6,000 300 Climbing Kansas City Center
04:37PM 39.0142 -90.4319 341° North 139 160 6,000 60 Level Kansas City Center
04:38PM 39.0639 -90.4500 344° North 154 177 6,200 480 Climbing Kansas City Center
04:39PM 39.0978 -90.4650 341° North 136 157 7,000 600 Climbing Kansas City Center
04:40PM 39.1308 -90.4814 339° North 129 148 7,500 480 Climbing Kansas City Center
04:41PM 39.1667 -90.4931 346° North 132 152 8,000 240 Climbing Kansas City Center
04:42PM 39.2067 -90.5025 350° North 141 162 8,000  Level Kansas City Center
04:43PM 39.2472 -90.5189 343° North 150 173 8,000  Level Kansas City Center
04:44PM 39.2953 -90.5386 342° North 151 174 8,000  Level Kansas City Center
04:45PM 39.3356 -90.5547 343° North 151 174 8,000  Level Kansas City Center
04:46PM 39.3756 -90.5703 343° North 151 174 8,000  Level Kansas City Center
04:47PM 39.4167 -90.5872 342° North 154 177 8,000  Level Kansas City Center
04:48PM 39.4581 -90.6022 344° North 156 180 8,000  Level Kansas City Center
04:49PM 39.4981 -90.6158 345° North 150 173 8,100  Climbing Kansas City Center
04:50PM 39.5481 -90.6344 344° North 155 178 8,000 -60 Descending Kansas City Center
04:51PM 39.5881 -90.6500 343° North 151 174 8,000  Level Kansas City Center
04:52PM 39.6281 -90.6667 342° North 151 174 8,000  Level Kansas City Center
04:53PM 39.6681 -90.6819 344° North 150 173 8,000  Level Kansas City Center
04:54PM 39.7081 -90.6972 344° North 149 171 8,000  Level Kansas City Center
04:55PM 39.7533 -90.7156 343° North 150 173 8,000  Level Kansas City Center
04:57PM 39.7933 -90.7317 343° North 150 173 8,000  Level Kansas City Center
04:58PM 39.8339 -90.7467 344° North 150 173 8,000  Level Kansas City Center
04:59PM 39.8739 -90.7625 343° North 150 173 8,000  Level Kansas City Center
05:00PM 39.9153 -90.7825 340° North 155 178 8,000  Level Kansas City Center
05:01PM 39.9642 -90.7972 347° North 151 174 8,100  Climbing Kansas City Center
05:02PM 40.0050 -90.8133 343° North 152 175 8,000 -60 Descending Kansas City Center
05:03PM 40.0458 -90.8306 342° North 153 176 8,000  Level Kansas City Center
05:04PM 40.0881 -90.8444 346° North 154 177 8,000  Level Kansas City Center
05:05PM 40.1286 -90.8594 344° North 153 176 8,000 -300 Level Kansas City Center
05:06PM 40.1697 -90.8742 345° North 153 176 7,400 -600 Descending Kansas City Center
05:07PM 40.2136 -90.8925 342° North 159 183 6,800 -660 Descending Kansas City Center
05:08PM 40.2653 -90.9125 344° North 161 185 6,100 -420 Descending Kansas City Center
05:09PM 40.3081 -90.9292 343° North 161 185 6,000 -60 Descending Kansas City Center
05:10PM 40.3506 -90.9447 344° North 160 184 6,000  Level Kansas City Center
05:11PM 40.3917 -90.9681 337° Northwest 161 185 6,000 -240 Level Kansas City Center
05:12PM 40.4292 -90.9853 341° North 151 174 5,600 -480 Descending Kansas City Center
05:13PM 40.4717 -90.9992 346° North 152 175 5,100 -540 Descending Kansas City Center
05:14PM 40.5236 -91.0203 343° North 160 184 4,500 -540 Descending Kansas City Center
05:15PM 40.5625 -91.0364 343° North 152 175 4,100 -420 Descending Kansas City Center
05:16PM 40.6011 -91.0525 342° North 148 170 3,700 -480 Descending Kansas City Center
05:17PM 40.6425 -91.0717 341° North 152 175 3,200 -480 Descending Kansas City Center
05:18PM 40.6819 -91.0908 340° North 152 175 2,800 -540 Descending Kansas City Center
05:19PM 40.7231 -91.1072 343° North 152 175 2,200 -300 Descending Kansas City Center
05:20PM 40.7578 -91.1697 306° West 170 196 2,200  Level Kansas City Center